createdAt,value
2022-08-17T00:00:38.036Z,22.31
2022-08-17T00:03:18.913Z,22.30
2022-08-17T00:05:57.096Z,22.27
2022-08-17T00:08:30.851Z,22.29
2022-08-17T00:11:01.135Z,22.32
2022-08-17T00:13:35.873Z,22.33
2022-08-17T00:16:10.250Z,22.31
2022-08-17T00:18:56.767Z,22.32
2022-08-17T00:22:28.625Z,22.28
2022-08-17T00:24:19.925Z,22.29
2022-08-17T00:26:48.739Z,22.33
2022-08-17T00:29:20.066Z,22.30
2022-08-17T00:31:49.586Z,22.27
2022-08-17T00:34:19.290Z,22.22
2022-08-17T00:36:48.101Z,22.20
2022-08-17T00:39:16.767Z,22.26
2022-08-17T00:41:45.531Z,22.24
2022-08-17T00:44:15.641Z,22.20
2022-08-17T00:46:47.920Z,22.15
2022-08-17T00:49:19.483Z,22.10
2022-08-17T00:51:54.617Z,22.11
2022-08-17T00:54:28.945Z,22.10
2022-08-17T00:57:08.135Z,22.10
2022-08-17T00:59:42.030Z,22.09
2022-08-17T01:02:15.344Z,22.08
2022-08-17T01:04:46.103Z,22.03
2022-08-17T01:07:17.093Z,22.03
2022-08-17T01:09:46.196Z,21.95
2022-08-17T01:12:14.892Z,21.93
2022-08-17T01:14:44.124Z,21.89
2022-08-17T01:17:14.599Z,21.91
2022-08-17T01:19:45.396Z,21.89
2022-08-17T01:22:24.384Z,21.82
2022-08-17T01:24:59.888Z,21.82
2022-08-17T01:27:30.108Z,21.79
2022-08-17T01:30:03.643Z,21.74
2022-08-17T01:32:33.432Z,21.75
2022-08-17T01:35:02.300Z,21.73
2022-08-17T01:37:37.491Z,21.77
2022-08-17T01:40:14.724Z,21.76
2022-08-17T01:42:50.128Z,21.73
2022-08-17T01:45:24.273Z,21.69
2022-08-17T01:47:53.817Z,21.70
2022-08-17T01:50:28.766Z,21.63
2022-08-17T01:53:04.163Z,21.59
2022-08-17T01:55:41.382Z,21.61
2022-08-17T01:58:10.189Z,21.55
2022-08-17T02:00:47.081Z,21.57
2022-08-17T02:03:29.956Z,21.50
2022-08-17T02:05:58.856Z,21.50
2022-08-17T02:08:38.824Z,21.47
2022-08-17T02:11:22.492Z,21.45
2022-08-17T02:13:58.309Z,21.43
2022-08-17T02:16:37.146Z,21.38
2022-08-17T02:19:10.687Z,21.40
2022-08-17T02:21:41.569Z,21.33
2022-08-17T02:25:01.188Z,21.33
2022-08-17T02:27:08.194Z,21.31
2022-08-17T02:29:37.340Z,21.32
2022-08-17T02:32:07.009Z,21.35
2022-08-17T02:34:35.712Z,21.36
2022-08-17T02:37:04.447Z,21.33
2022-08-17T02:39:34.601Z,21.37
2022-08-17T02:42:05.070Z,21.37
2022-08-17T02:44:39.507Z,21.41
2022-08-17T02:47:10.814Z,21.34
2022-08-17T02:49:39.533Z,21.42
2022-08-17T02:52:09.393Z,21.49
2022-08-17T02:54:42.273Z,21.60
2022-08-17T02:57:12.246Z,21.63
2022-08-17T02:59:46.775Z,21.70
2022-08-17T03:02:18.373Z,21.80
2022-08-17T03:04:47.030Z,21.86
2022-08-17T03:07:16.207Z,21.98
2022-08-17T03:09:46.313Z,22.03
2022-08-17T03:12:16.305Z,22.15
2022-08-17T03:14:45.657Z,22.18
2022-08-17T03:17:17.420Z,22.17
2022-08-17T03:19:46.551Z,22.12
2022-08-17T03:22:37.231Z,22.13
2022-08-17T03:25:10.784Z,22.05
2022-08-17T03:27:39.930Z,21.99
2022-08-17T03:30:15.857Z,21.92
2022-08-17T03:32:48.578Z,21.94
2022-08-17T03:35:20.992Z,21.85
2022-08-17T03:37:56.954Z,21.80
2022-08-17T03:40:43.786Z,21.81
2022-08-17T03:43:23.269Z,21.76
2022-08-17T03:46:26.871Z,21.76
2022-08-17T03:49:16.563Z,21.79
2022-08-17T03:52:02.782Z,21.73
2022-08-17T03:54:48.853Z,21.75
2022-08-17T03:57:19.396Z,21.77
2022-08-17T03:59:48.805Z,21.76
2022-08-17T04:02:21.405Z,21.84
2022-08-17T04:04:51.420Z,21.85
2022-08-17T04:07:21.156Z,21.88
2022-08-17T04:09:50.048Z,21.92
2022-08-17T04:12:23.556Z,22.01
2022-08-17T04:14:54.760Z,22.04
2022-08-17T04:17:28.155Z,22.16
2022-08-17T04:19:57.473Z,22.18
2022-08-17T04:22:33.179Z,22.21
2022-08-17T04:25:09.942Z,22.26
2022-08-17T04:27:41.084Z,22.30
2022-08-17T04:30:11.833Z,22.36
2022-08-17T04:33:19.178Z,22.40
2022-08-17T04:35:47.288Z,22.40
2022-08-17T04:38:19.691Z,22.44
2022-08-17T04:41:15.442Z,22.56
2022-08-17T04:43:48.277Z,22.64
2022-08-17T04:46:19.791Z,22.66
2022-08-17T04:48:51.428Z,22.69
2022-08-17T04:51:25.138Z,22.77
2022-08-17T04:53:58.130Z,22.78
2022-08-17T04:56:29.020Z,22.78
2022-08-17T04:59:02.914Z,22.87
2022-08-17T05:01:36.287Z,23.00
2022-08-17T05:04:20.775Z,23.08
2022-08-17T05:06:57.707Z,23.12
2022-08-17T05:09:26.396Z,23.21
2022-08-17T05:11:55.365Z,23.29
2022-08-17T05:14:33.304Z,23.43
2022-08-17T05:17:10.667Z,23.45
2022-08-17T05:19:41.211Z,23.50
2022-08-17T05:22:10.005Z,23.56
2022-08-17T05:24:43.694Z,23.61
2022-08-17T05:27:24.282Z,23.62
2022-08-17T05:30:01.117Z,23.66
2022-08-17T05:32:39.285Z,23.78
2022-08-17T05:35:10.095Z,23.82
2022-08-17T05:37:39.156Z,23.90
2022-08-17T05:40:10.109Z,23.92
2022-08-17T05:42:39.055Z,23.97
2022-08-17T05:45:11.733Z,24.06
2022-08-17T05:47:41.650Z,24.05
2022-08-17T05:50:18.096Z,24.14
2022-08-17T05:52:59.669Z,24.19
2022-08-17T05:55:39.922Z,24.29
2022-08-17T05:58:23.357Z,24.34
2022-08-17T06:01:19.127Z,24.43
2022-08-17T06:03:58.328Z,24.52
2022-08-17T06:06:41.974Z,24.67
2022-08-17T06:09:40.167Z,24.78
2022-08-17T06:12:33.711Z,24.76
2022-08-17T06:15:24.660Z,24.86
2022-08-17T06:18:01.015Z,24.92
2022-08-17T06:20:40.194Z,24.97
2022-08-17T06:23:15.720Z,25.09
2022-08-17T06:25:50.099Z,25.13
2022-08-17T06:28:32.293Z,25.30
2022-08-17T06:31:09.188Z,25.34
2022-08-17T06:33:41.754Z,25.48
2022-08-17T06:36:30.304Z,25.48
2022-08-17T06:39:18.549Z,25.55
2022-08-17T06:42:02.495Z,25.62
2022-08-17T06:44:47.609Z,25.57
2022-08-17T06:47:30.138Z,25.50
2022-08-17T06:50:14.745Z,25.53
2022-08-17T06:52:53.766Z,25.55
2022-08-17T06:55:34.519Z,25.62
2022-08-17T06:58:16.662Z,25.57
2022-08-17T07:00:48.954Z,25.71
2022-08-17T07:03:33.474Z,25.78
2022-08-17T07:06:09.880Z,25.81
2022-08-17T07:08:59.097Z,25.85
2022-08-17T07:11:35.610Z,25.88
2022-08-17T07:14:22.470Z,25.94
2022-08-17T07:16:54.796Z,26.00
2022-08-17T07:19:32.795Z,26.03
2022-08-17T07:22:20.323Z,26.11
2022-08-17T07:24:54.842Z,26.15
2022-08-17T07:27:27.735Z,26.22
2022-08-17T07:30:10.610Z,26.32
2022-08-17T07:32:45.293Z,26.35
2022-08-17T07:35:21.223Z,26.44
2022-08-17T07:38:25.770Z,26.51
2022-08-17T07:41:06.347Z,26.59
2022-08-17T07:43:46.295Z,26.64
2022-08-17T07:46:37.491Z,26.72
2022-08-17T07:49:35.080Z,26.68
2022-08-17T07:52:48.211Z,26.67
2022-08-17T07:55:02.298Z,26.73
2022-08-17T07:57:37.111Z,26.83
2022-08-17T08:00:31.488Z,26.90
2022-08-17T08:03:13.346Z,26.95
2022-08-17T08:05:56.223Z,27.01
2022-08-17T08:08:31.317Z,27.11
2022-08-17T08:11:08.610Z,27.15
2022-08-17T08:13:45.166Z,27.16
2022-08-17T08:16:24.899Z,27.26
2022-08-17T08:18:58.369Z,27.29
2022-08-17T08:21:49.432Z,27.36
2022-08-17T08:24:56.527Z,27.39
2022-08-17T08:27:45.552Z,27.39
2022-08-17T08:30:19.338Z,27.46
2022-08-17T08:33:17.332Z,27.53
2022-08-17T08:35:55.705Z,27.58
2022-08-17T08:38:44.241Z,27.64
2022-08-17T08:41:38.575Z,27.71
2022-08-17T08:45:00.295Z,27.81
2022-08-17T08:47:40.387Z,27.93
2022-08-17T08:50:30.195Z,28.03
2022-08-17T08:53:25.162Z,28.12
2022-08-17T08:56:01.347Z,28.23
2022-08-17T08:58:43.896Z,28.25
2022-08-17T09:01:26.920Z,28.31
2022-08-17T09:04:26.938Z,28.37
2022-08-17T09:07:11.310Z,28.42
2022-08-17T09:09:58.703Z,28.56
2022-08-17T09:12:42.869Z,28.68
2022-08-17T09:15:18.912Z,28.76
2022-08-17T09:18:21.425Z,28.87
2022-08-17T09:20:55.293Z,28.91
2022-08-17T09:23:38.453Z,28.99
2022-08-17T09:26:21.157Z,29.01
2022-08-17T09:28:55.290Z,29.11
2022-08-17T09:31:46.486Z,29.13
2022-08-17T09:34:31.954Z,29.23
2022-08-17T09:37:17.069Z,29.29
2022-08-17T09:39:56.850Z,29.17
2022-08-17T09:42:32.506Z,29.26
2022-08-17T09:45:25.032Z,29.26
2022-08-17T09:48:03.243Z,29.30
2022-08-17T09:51:03.709Z,29.39
2022-08-17T09:53:33.650Z,29.40
2022-08-17T09:56:19.412Z,29.42
2022-08-17T09:59:38.676Z,29.49
2022-08-17T10:02:44.217Z,29.58
2022-08-17T10:05:22.066Z,29.68
2022-08-17T10:08:02.241Z,29.63
2022-08-17T10:10:41.880Z,29.66
2022-08-17T10:13:27.212Z,29.63
2022-08-17T10:16:09.038Z,29.67
2022-08-17T10:18:57.458Z,29.81
2022-08-17T10:21:45.476Z,29.86
2022-08-17T10:24:38.671Z,29.96
2022-08-17T10:27:15.976Z,29.95
2022-08-17T10:29:50.784Z,29.95
2022-08-17T10:32:32.814Z,30.01
2022-08-17T10:35:34.025Z,30.01
2022-08-17T10:38:32.817Z,30.06
2022-08-17T10:41:25.289Z,30.12
2022-08-17T10:44:38.860Z,30.15
2022-08-17T10:47:08.260Z,30.09
2022-08-17T10:49:39.382Z,30.16
2022-08-17T10:52:48.901Z,30.21
2022-08-17T10:55:20.912Z,30.30
2022-08-17T10:57:55.007Z,30.33
2022-08-17T11:01:04.184Z,30.39
2022-08-17T11:03:33.374Z,30.42
2022-08-17T11:06:19.291Z,30.42
2022-08-17T11:09:20.742Z,30.40
2022-08-17T11:12:33.074Z,30.48
2022-08-17T11:15:23.318Z,30.58
2022-08-17T11:18:24.818Z,30.63
2022-08-17T11:21:15.978Z,30.72
2022-08-17T11:24:10.487Z,30.82
2022-08-17T11:26:46.842Z,30.86
2022-08-17T11:29:24.647Z,30.91
2022-08-17T11:32:11.111Z,30.94
2022-08-17T11:34:43.620Z,30.95
2022-08-17T11:37:48.433Z,30.98
2022-08-17T11:41:10.815Z,31.09
2022-08-17T11:44:04.655Z,31.13
2022-08-17T11:47:18.549Z,31.18
2022-08-17T11:50:28.663Z,31.27
2022-08-17T11:52:57.897Z,31.26
2022-08-17T11:56:08.310Z,31.30
2022-08-17T11:58:41.899Z,31.22
2022-08-17T12:01:16.219Z,31.28
2022-08-17T12:03:57.937Z,31.34
2022-08-17T12:06:51.467Z,31.36
2022-08-17T12:09:25.156Z,31.41
2022-08-17T12:12:12.445Z,31.53
2022-08-17T12:17:42.700Z,31.65
2022-08-17T12:20:24.174Z,31.70
2022-08-17T12:23:05.124Z,31.76
2022-08-17T12:25:49.452Z,31.75
2022-08-17T12:28:28.973Z,31.77
2022-08-17T12:31:09.054Z,31.78
2022-08-17T12:33:45.473Z,31.83
2022-08-17T12:36:19.733Z,31.80
2022-08-17T12:39:13.999Z,31.75
2022-08-17T12:41:48.199Z,31.75
2022-08-17T12:44:23.444Z,31.65
2022-08-17T12:47:02.273Z,31.80
2022-08-17T12:49:35.693Z,31.89
2022-08-17T12:52:16.843Z,31.75
2022-08-17T12:55:00.967Z,31.73
2022-08-17T12:57:35.657Z,31.89
2022-08-17T13:00:17.834Z,31.93
2022-08-17T13:02:50.600Z,31.94
2022-08-17T13:05:27.869Z,31.96
2022-08-17T13:07:59.818Z,31.98
2022-08-17T13:10:35.577Z,32.05
2022-08-17T13:13:18.025Z,32.16
2022-08-17T13:15:57.204Z,32.12
2022-08-17T13:18:49.257Z,32.21
2022-08-17T13:21:28.172Z,32.21
2022-08-17T13:24:00.820Z,32.19
2022-08-17T13:26:38.333Z,32.18
2022-08-17T13:29:18.768Z,32.13
2022-08-17T13:31:51.868Z,32.05
2022-08-17T13:35:11.768Z,32.05
2022-08-17T13:37:34.409Z,32.02
2022-08-17T13:40:30.503Z,32.00
2022-08-17T13:43:03.581Z,31.99
2022-08-17T13:45:50.388Z,31.93
2022-08-17T13:48:32.364Z,31.82
2022-08-17T13:51:26.711Z,31.80
2022-08-17T13:54:19.142Z,31.84
2022-08-17T13:57:01.718Z,31.88
2022-08-17T13:59:53.533Z,31.99
2022-08-17T14:02:28.833Z,31.96
2022-08-17T14:05:00.700Z,31.94
2022-08-17T14:07:37.519Z,31.87
2022-08-17T14:10:14.803Z,31.88
2022-08-17T14:12:46.485Z,31.80
2022-08-17T14:15:20.563Z,31.82
2022-08-17T14:17:50.506Z,31.80
2022-08-17T14:20:24.715Z,31.86
2022-08-17T14:22:56.757Z,31.84
2022-08-17T14:25:29.514Z,31.84
2022-08-17T14:27:59.430Z,31.75
2022-08-17T14:30:30.987Z,31.73
2022-08-17T14:33:02.350Z,31.72
2022-08-17T14:35:31.685Z,31.71
2022-08-17T14:38:02.343Z,31.75
2022-08-17T14:40:31.641Z,31.93
2022-08-17T14:43:01.551Z,31.98
2022-08-17T14:45:33.479Z,32.08
2022-08-17T14:48:07.969Z,32.16
2022-08-17T14:50:40.351Z,32.17
2022-08-17T14:53:16.318Z,32.11
2022-08-17T14:55:47.231Z,32.16
2022-08-17T14:58:18.143Z,32.00
2022-08-17T15:00:51.188Z,31.99
2022-08-17T15:03:20.576Z,32.10
2022-08-17T15:05:49.674Z,32.10
2022-08-17T15:08:19.756Z,32.14
2022-08-17T15:10:54.204Z,32.19
2022-08-17T15:13:27.595Z,32.27
2022-08-17T15:16:00.020Z,32.28
2022-08-17T15:18:29.056Z,32.25
2022-08-17T15:21:00.965Z,32.39
2022-08-17T15:23:30.164Z,32.60
2022-08-17T15:25:59.334Z,32.54
2022-08-17T15:28:28.283Z,32.61
2022-08-17T15:30:59.260Z,32.51
2022-08-17T15:33:30.545Z,32.59
2022-08-17T15:36:02.404Z,32.71
2022-08-17T15:38:34.098Z,32.72
2022-08-17T15:41:04.301Z,32.77
2022-08-17T15:43:34.084Z,32.74
2022-08-17T15:46:10.775Z,32.73
2022-08-17T15:48:44.008Z,32.71
2022-08-17T15:51:17.491Z,32.55
2022-08-17T15:53:54.920Z,32.54
2022-08-17T15:56:25.509Z,32.36
2022-08-17T15:58:55.487Z,32.18
2022-08-17T16:02:20.011Z,32.10
2022-08-17T16:04:29.673Z,32.00
2022-08-17T16:07:01.215Z,31.84
2022-08-17T16:09:30.337Z,31.86
2022-08-17T16:12:09.094Z,31.85
2022-08-17T16:14:38.364Z,31.76
2022-08-17T16:17:38.594Z,31.69
2022-08-17T16:19:59.704Z,31.63
2022-08-17T16:22:35.140Z,31.65
2022-08-17T16:25:07.899Z,31.67
2022-08-17T16:27:37.607Z,31.67
2022-08-17T16:30:12.518Z,31.68
2022-08-17T16:32:48.511Z,31.54
2022-08-17T16:35:22.317Z,31.46
2022-08-17T16:37:53.072Z,31.37
2022-08-17T16:40:33.111Z,31.43
2022-08-17T16:43:07.322Z,31.40
2022-08-17T16:45:41.015Z,31.38
2022-08-17T16:48:15.856Z,31.30
2022-08-17T16:51:03.207Z,31.35
2022-08-17T16:53:34.207Z,31.30
2022-08-17T16:56:05.396Z,31.08
2022-08-17T16:58:34.875Z,30.99
2022-08-17T17:01:04.082Z,30.98
2022-08-17T17:03:36.190Z,30.88
2022-08-17T17:06:15.826Z,30.69
2022-08-17T17:08:57.128Z,30.49
2022-08-17T17:11:34.505Z,30.09
2022-08-17T17:14:08.518Z,29.81
2022-08-17T17:16:46.729Z,29.59
2022-08-17T17:19:34.557Z,29.40
2022-08-17T17:22:26.056Z,29.10
2022-08-17T17:25:18.429Z,28.93
2022-08-17T17:28:04.902Z,28.58
2022-08-17T17:30:50.068Z,28.35
2022-08-17T17:33:24.688Z,28.20
2022-08-17T17:36:00.552Z,28.07
2022-08-17T17:38:35.757Z,27.95
2022-08-17T17:41:12.713Z,27.81
2022-08-17T17:43:49.518Z,27.70
2022-08-17T17:46:29.071Z,27.60
2022-08-17T17:49:02.898Z,27.46
2022-08-17T17:52:09.361Z,27.38
2022-08-17T17:55:04.447Z,27.31
2022-08-17T17:57:51.058Z,27.19
2022-08-17T18:00:25.263Z,27.10
2022-08-17T18:03:15.433Z,27.02
2022-08-17T18:06:14.910Z,26.95
2022-08-17T18:09:04.302Z,26.84
2022-08-17T18:12:11.501Z,26.69
2022-08-17T18:15:02.366Z,26.60
2022-08-17T18:17:36.545Z,26.50
2022-08-17T18:20:07.763Z,26.40
2022-08-17T18:22:37.201Z,26.29
2022-08-17T18:25:47.611Z,26.17
2022-08-17T18:28:27.946Z,26.09
2022-08-17T18:31:14.288Z,26.03
2022-08-17T18:33:47.150Z,25.94
2022-08-17T18:36:31.283Z,25.87
2022-08-17T18:39:16.473Z,25.85
2022-08-17T18:41:51.112Z,25.80
2022-08-17T18:44:29.276Z,25.79
2022-08-17T18:47:15.037Z,25.73
2022-08-17T18:49:47.601Z,25.69
2022-08-17T18:52:23.708Z,25.62
2022-08-17T18:55:09.992Z,25.57
2022-08-17T18:57:44.888Z,25.48
2022-08-17T19:00:18.606Z,25.43
2022-08-17T19:02:56.426Z,25.39
2022-08-17T19:05:36.485Z,25.34
2022-08-17T19:08:25.107Z,25.24
2022-08-17T19:10:59.957Z,25.17
2022-08-17T19:13:38.319Z,25.07
2022-08-17T19:16:15.766Z,25.08
2022-08-17T19:18:52.504Z,25.00
2022-08-17T19:21:28.662Z,24.95
2022-08-17T19:24:07.262Z,24.93
2022-08-17T19:26:54.225Z,24.87
2022-08-17T19:29:34.382Z,24.83
2022-08-17T19:32:05.700Z,24.82
2022-08-17T19:34:38.215Z,24.80
2022-08-17T19:37:21.754Z,24.69
2022-08-17T19:40:08.592Z,24.61
2022-08-17T19:42:57.164Z,24.55
2022-08-17T19:45:45.369Z,24.47
2022-08-17T19:48:31.006Z,24.47
2022-08-17T19:51:09.259Z,24.40
2022-08-17T19:54:04.913Z,24.38
2022-08-17T19:56:49.028Z,24.21
2022-08-17T19:59:36.022Z,24.14
2022-08-17T20:02:32.649Z,24.11
2022-08-17T20:05:07.552Z,24.05
2022-08-17T20:07:55.429Z,24.08
2022-08-17T20:10:48.143Z,23.96
2022-08-17T20:13:33.673Z,23.97
2022-08-17T20:16:03.953Z,23.91
2022-08-17T20:18:44.392Z,23.89
2022-08-17T20:21:23.414Z,23.84
2022-08-17T20:24:00.999Z,23.78
2022-08-17T20:26:58.361Z,23.77
2022-08-17T20:29:39.677Z,23.81
2022-08-17T20:32:29.441Z,23.78
2022-08-17T20:35:24.733Z,23.74
2022-08-17T20:37:59.296Z,23.73
2022-08-17T20:40:37.067Z,23.70
2022-08-17T20:43:49.194Z,23.67
2022-08-17T20:46:35.646Z,23.62
2022-08-17T20:49:24.104Z,23.64
2022-08-17T20:52:03.478Z,23.56
2022-08-17T20:54:49.156Z,23.51
2022-08-17T20:57:49.231Z,23.50
2022-08-17T21:00:47.383Z,23.41
2022-08-17T21:03:51.825Z,23.31
2022-08-17T21:06:25.468Z,23.23
2022-08-17T21:09:00.325Z,23.16
2022-08-17T21:12:04.410Z,23.15
2022-08-17T21:15:02.604Z,23.12
2022-08-17T21:17:51.467Z,23.10
2022-08-17T21:20:32.814Z,23.03
2022-08-17T21:23:34.869Z,23.05
2022-08-17T21:26:29.620Z,23.04
2022-08-17T21:29:32.532Z,23.07
2022-08-17T21:32:24.326Z,23.06
2022-08-17T21:35:30.571Z,23.09
2022-08-17T21:38:05.390Z,23.06
2022-08-17T21:40:36.236Z,23.03
2022-08-17T21:43:24.548Z,23.01
2022-08-17T21:46:05.082Z,23.03
2022-08-17T21:48:44.357Z,22.97
2022-08-17T21:51:19.483Z,23.00
2022-08-17T21:53:52.846Z,22.99
2022-08-17T21:56:27.422Z,22.99
2022-08-17T21:59:03.584Z,22.94
2022-08-17T22:01:36.049Z,22.92
2022-08-17T22:04:18.026Z,22.88
2022-08-17T22:06:56.508Z,22.89
2022-08-17T22:09:29.422Z,22.80
2022-08-17T22:12:07.329Z,22.74
2022-08-17T22:14:52.466Z,22.68
2022-08-17T22:17:27.351Z,22.67
2022-08-17T22:20:01.491Z,22.63
2022-08-17T22:23:00.002Z,22.64
2022-08-17T22:25:29.683Z,22.61
2022-08-17T22:28:01.786Z,22.59
2022-08-17T22:31:04.448Z,22.57
2022-08-17T22:34:08.692Z,22.59
2022-08-17T22:36:38.894Z,22.52
2022-08-17T22:39:40.995Z,22.49
2022-08-17T22:42:16.130Z,22.48
2022-08-17T22:44:51.384Z,22.44
2022-08-17T22:47:38.922Z,22.43
2022-08-17T22:50:16.375Z,22.34
2022-08-17T22:53:00.350Z,22.33
2022-08-17T22:55:49.432Z,22.33
2022-08-17T22:58:41.081Z,22.29
2022-08-17T23:01:29.459Z,22.28
2022-08-17T23:04:05.865Z,22.24
2022-08-17T23:06:37.418Z,22.23
2022-08-17T23:09:08.353Z,22.26
2022-08-17T23:11:50.357Z,22.20
2022-08-17T23:14:22.556Z,22.20
2022-08-17T23:16:51.681Z,22.12
2022-08-17T23:19:23.078Z,22.08
2022-08-17T23:21:54.351Z,22.06
2022-08-17T23:24:27.018Z,22.00
2022-08-17T23:26:57.441Z,22.02
2022-08-17T23:29:29.545Z,21.98
2022-08-17T23:32:01.482Z,21.98
2022-08-17T23:34:32.349Z,21.93
2022-08-17T23:37:02.321Z,21.83
2022-08-17T23:39:31.666Z,21.86
2022-08-17T23:42:05.202Z,21.82
2022-08-17T23:44:34.046Z,21.84
2022-08-17T23:47:04.756Z,21.79
2022-08-17T23:49:36.220Z,21.73
2022-08-17T23:52:12.634Z,21.75
2022-08-17T23:54:47.988Z,21.71
2022-08-17T23:57:20.637Z,21.64
